Terminal Aerodrome Forecast
Issued by NWS Bismarck, ND

Home | Current Version | Previous Version | Graphics & Text | Print | Product List | Glossary On
Versions: 1 2 3 4 5 6 7 8 9 10 11 12 13 14 15 16
000
FTUS43 KBIS 151500 AAA
TAFISN
TAF AMD
KISN 151547Z 1516/1612 35015KT P6SM OVC009
     FM151700 34014KT P6SM OVC012
     FM160000 34006KT P6SM OVC015=

USA.gov is the U.S. government's official web portal to all federal, state and local government web resources and services.